sensor_id;sensor_type;location;lat;lon;timestamp;pressure;altitude;pressure_sealevel;temperature
44429;BMP180;30134;47.866;-4.222;2022-07-21T00:00:22;102362.00;;;27.90
44429;BMP180;30134;47.866;-4.222;2022-07-21T00:02:50;102362.00;;;28.10
44429;BMP180;30134;47.866;-4.222;2022-07-21T00:05:17;102360.00;;;28.30
44429;BMP180;30134;47.866;-4.222;2022-07-21T00:07:44;102362.00;;;28.30
44429;BMP180;30134;47.866;-4.222;2022-07-21T00:10:11;102360.00;;;28.30
44429;BMP180;30134;47.866;-4.222;2022-07-21T00:12:37;102358.00;;;28.30
44429;BMP180;30134;47.866;-4.222;2022-07-21T00:15:05;102358.00;;;28.20
44429;BMP180;30134;47.866;-4.222;2022-07-21T00:17:32;102358.00;;;28.10
44429;BMP180;30134;47.866;-4.222;2022-07-21T00:19:59;102357.00;;;28.10
44429;BMP180;30134;47.866;-4.222;2022-07-21T00:22:25;102356.00;;;28.30
44429;BMP180;30134;47.866;-4.222;2022-07-21T00:24:52;102351.00;;;28.00
44429;BMP180;30134;47.866;-4.222;2022-07-21T00:27:19;102349.00;;;28.20
44429;BMP180;30134;47.866;-4.222;2022-07-21T00:29:44;102350.00;;;28.10
44429;BMP180;30134;47.866;-4.222;2022-07-21T00:32:11;102350.00;;;28.10
44429;BMP180;30134;47.866;-4.222;2022-07-21T00:34:37;102344.00;;;28.20
44429;BMP180;30134;47.866;-4.222;2022-07-21T00:37:03;102344.00;;;28.40
44429;BMP180;30134;47.866;-4.222;2022-07-21T00:39:29;102342.00;;;28.10
44429;BMP180;30134;47.866;-4.222;2022-07-21T00:41:55;102339.00;;;28.30
44429;BMP180;30134;47.866;-4.222;2022-07-21T00:44:27;102338.00;;;28.10
44429;BMP180;30134;47.866;-4.222;2022-07-21T00:46:59;102340.00;;;28.20
44429;BMP180;30134;47.866;-4.222;2022-07-21T00:49:26;102341.00;;;28.20
44429;BMP180;30134;47.866;-4.222;2022-07-21T00:51:53;102332.00;;;28.30
44429;BMP180;30134;47.866;-4.222;2022-07-21T00:54:19;102333.00;;;28.00
44429;BMP180;30134;47.866;-4.222;2022-07-21T00:56:46;102334.00;;;28.20
44429;BMP180;30134;47.866;-4.222;2022-07-21T00:59:12;102329.00;;;28.10
44429;BMP180;30134;47.866;-4.222;2022-07-21T01:01:38;102332.00;;;28.10
44429;BMP180;30134;47.866;-4.222;2022-07-21T01:04:05;102322.00;;;28.10
44429;BMP180;30134;47.866;-4.222;2022-07-21T01:06:31;102318.00;;;28.20
44429;BMP180;30134;47.866;-4.222;2022-07-21T01:08:58;102322.00;;;28.30
44429;BMP180;30134;47.866;-4.222;2022-07-21T01:11:25;102322.00;;;28.20
44429;BMP180;30134;47.866;-4.222;2022-07-21T01:13:51;102328.00;;;28.10
44429;BMP180;30134;47.866;-4.222;2022-07-21T01:16:17;102319.00;;;28.00
44429;BMP180;30134;47.866;-4.222;2022-07-21T01:18:43;102318.00;;;28.10
44429;BMP180;30134;47.866;-4.222;2022-07-21T01:21:33;102320.00;;;28.20
44429;BMP180;30134;47.866;-4.222;2022-07-21T01:24:00;102321.00;;;28.20
44429;BMP180;30134;47.866;-4.222;2022-07-21T01:26:27;102320.00;;;28.20
44429;BMP180;30134;47.866;-4.222;2022-07-21T01:28:53;102315.00;;;28.20
44429;BMP180;30134;47.866;-4.222;2022-07-21T01:31:19;102315.00;;;28.20
44429;BMP180;30134;47.866;-4.222;2022-07-21T01:33:46;102311.00;;;28.00
44429;BMP180;30134;47.866;-4.222;2022-07-21T01:36:13;102324.00;;;28.10
44429;BMP180;30134;47.866;-4.222;2022-07-21T01:38:39;102312.00;;;28.00
44429;BMP180;30134;47.866;-4.222;2022-07-21T01:41:23;102317.00;;;28.30
44429;BMP180;30134;47.866;-4.222;2022-07-21T01:44:03;102315.00;;;28.00
44429;BMP180;30134;47.866;-4.222;2022-07-21T01:46:33;102320.00;;;28.10
44429;BMP180;30134;47.866;-4.222;2022-07-21T01:49:06;102312.00;;;28.20
44429;BMP180;30134;47.866;-4.222;2022-07-21T01:51:33;102307.00;;;28.20
44429;BMP180;30134;47.866;-4.222;2022-07-21T01:54:00;102310.00;;;28.10
44429;BMP180;30134;47.866;-4.222;2022-07-21T01:56:27;102300.00;;;28.20
44429;BMP180;30134;47.866;-4.222;2022-07-21T01:58:55;102302.00;;;28.10
44429;BMP180;30134;47.866;-4.222;2022-07-21T02:01:24;102302.00;;;28.20
44429;BMP180;30134;47.866;-4.222;2022-07-21T02:03:53;102306.00;;;28.10
44429;BMP180;30134;47.866;-4.222;2022-07-21T02:06:20;102298.00;;;28.20
44429;BMP180;30134;47.866;-4.222;2022-07-21T02:08:46;102299.00;;;28.20
44429;BMP180;30134;47.866;-4.222;2022-07-21T02:11:13;102303.00;;;28.20
44429;BMP180;30134;47.866;-4.222;2022-07-21T02:13:40;102292.00;;;28.10
44429;BMP180;30134;47.866;-4.222;2022-07-21T02:16:07;102294.00;;;28.20
44429;BMP180;30134;47.866;-4.222;2022-07-21T02:18:33;102295.00;;;28.10
44429;BMP180;30134;47.866;-4.222;2022-07-21T02:20:59;102298.00;;;28.30
44429;BMP180;30134;47.866;-4.222;2022-07-21T02:23:25;102301.00;;;28.00
44429;BMP180;30134;47.866;-4.222;2022-07-21T02:25:53;102301.00;;;28.30
44429;BMP180;30134;47.866;-4.222;2022-07-21T02:28:20;102298.00;;;28.10
44429;BMP180;30134;47.866;-4.222;2022-07-21T02:30:46;102299.00;;;28.20
44429;BMP180;30134;47.866;-4.222;2022-07-21T02:33:13;102299.00;;;28.20
44429;BMP180;30134;47.866;-4.222;2022-07-21T02:35:40;102305.00;;;28.10
44429;BMP180;30134;47.866;-4.222;2022-07-21T02:38:06;102308.00;;;28.10
44429;BMP180;30134;47.866;-4.222;2022-07-21T02:40:33;102306.00;;;28.20
44429;BMP180;30134;47.866;-4.222;2022-07-21T02:42:59;102305.00;;;28.20
44429;BMP180;30134;47.866;-4.222;2022-07-21T02:45:33;102312.00;;;28.10
44429;BMP180;30134;47.866;-4.222;2022-07-21T02:50:36;102305.00;;;28.20
44429;BMP180;30134;47.866;-4.222;2022-07-21T02:53:15;102306.00;;;28.10
44429;BMP180;30134;47.866;-4.222;2022-07-21T02:55:44;102308.00;;;28.10
44429;BMP180;30134;47.866;-4.222;2022-07-21T02:58:23;102307.00;;;28.10
44429;BMP180;30134;47.866;-4.222;2022-07-21T03:00:58;102310.00;;;28.20
44429;BMP180;30134;47.866;-4.222;2022-07-21T03:03:30;102320.00;;;28.00
44429;BMP180;30134;47.866;-4.222;2022-07-21T03:05:58;102311.00;;;28.20
44429;BMP180;30134;47.866;-4.222;2022-07-21T03:08:26;102319.00;;;28.10
44429;BMP180;30134;47.866;-4.222;2022-07-21T03:10:53;102316.00;;;28.20
44429;BMP180;30134;47.866;-4.222;2022-07-21T03:13:19;102314.00;;;28.00
44429;BMP180;30134;47.866;-4.222;2022-07-21T03:15:46;102314.00;;;28.00
44429;BMP180;30134;47.866;-4.222;2022-07-21T03:18:14;102317.00;;;28.10
44429;BMP180;30134;47.866;-4.222;2022-07-21T03:20:44;102310.00;;;28.00
44429;BMP180;30134;47.866;-4.222;2022-07-21T03:23:10;102311.00;;;27.80
44429;BMP180;30134;47.866;-4.222;2022-07-21T03:25:36;102306.00;;;28.00
44429;BMP180;30134;47.866;-4.222;2022-07-21T03:28:03;102310.00;;;28.00
44429;BMP180;30134;47.866;-4.222;2022-07-21T03:30:29;102312.00;;;28.10
44429;BMP180;30134;47.866;-4.222;2022-07-21T03:32:56;102316.00;;;28.00
44429;BMP180;30134;47.866;-4.222;2022-07-21T03:35:23;102314.00;;;27.90
44429;BMP180;30134;47.866;-4.222;2022-07-21T03:37:56;102304.00;;;27.90
44429;BMP180;30134;47.866;-4.222;2022-07-21T03:40:25;102308.00;;;28.20
44429;BMP180;30134;47.866;-4.222;2022-07-21T03:42:55;102310.00;;;28.00
44429;BMP180;30134;47.866;-4.222;2022-07-21T03:45:22;102317.00;;;28.10
44429;BMP180;30134;47.866;-4.222;2022-07-21T03:47:49;102310.00;;;28.00
44429;BMP180;30134;47.866;-4.222;2022-07-21T03:50:15;102304.00;;;28.00
44429;BMP180;30134;47.866;-4.222;2022-07-21T03:52:50;102305.00;;;28.00
44429;BMP180;30134;47.866;-4.222;2022-07-21T03:55:15;102306.00;;;28.10
44429;BMP180;30134;47.866;-4.222;2022-07-21T03:57:48;102311.00;;;28.10
44429;BMP180;30134;47.866;-4.222;2022-07-21T04:02:48;102307.00;;;27.80
44429;BMP180;30134;47.866;-4.222;2022-07-21T04:05:16;102312.00;;;28.00
44429;BMP180;30134;47.866;-4.222;2022-07-21T04:07:45;102314.00;;;27.90
44429;BMP180;30134;47.866;-4.222;2022-07-21T04:10:15;102313.00;;;28.00
44429;BMP180;30134;47.866;-4.222;2022-07-21T04:12:43;102310.00;;;28.00
44429;BMP180;30134;47.866;-4.222;2022-07-21T04:15:10;102318.00;;;28.00
44429;BMP180;30134;47.866;-4.222;2022-07-21T04:17:36;102318.00;;;28.00
44429;BMP180;30134;47.866;-4.222;2022-07-21T04:20:04;102315.00;;;28.00
44429;BMP180;30134;47.866;-4.222;2022-07-21T04:22:30;102324.00;;;28.00
44429;BMP180;30134;47.866;-4.222;2022-07-21T04:24:57;102326.00;;;28.10
44429;BMP180;30134;47.866;-4.222;2022-07-21T04:27:22;102322.00;;;28.00
44429;BMP180;30134;47.866;-4.222;2022-07-21T04:29:50;102329.00;;;27.90
44429;BMP180;30134;47.866;-4.222;2022-07-21T04:32:16;102326.00;;;28.00
44429;BMP180;30134;47.866;-4.222;2022-07-21T04:34:42;102323.00;;;27.90
44429;BMP180;30134;47.866;-4.222;2022-07-21T04:37:08;102320.00;;;27.80
44429;BMP180;30134;47.866;-4.222;2022-07-21T04:39:34;102331.00;;;28.00
44429;BMP180;30134;47.866;-4.222;2022-07-21T04:42:00;102341.00;;;27.90
44429;BMP180;30134;47.866;-4.222;2022-07-21T04:44:26;102332.00;;;28.00
44429;BMP180;30134;47.866;-4.222;2022-07-21T04:46:52;102332.00;;;28.00
44429;BMP180;30134;47.866;-4.222;2022-07-21T04:49:18;102329.00;;;27.80
44429;BMP180;30134;47.866;-4.222;2022-07-21T04:51:44;102335.00;;;28.00
44429;BMP180;30134;47.866;-4.222;2022-07-21T04:54:17;102327.00;;;27.80
44429;BMP180;30134;47.866;-4.222;2022-07-21T04:56:44;102321.00;;;27.70
44429;BMP180;30134;47.866;-4.222;2022-07-21T04:59:10;102327.00;;;28.00
44429;BMP180;30134;47.866;-4.222;2022-07-21T05:01:37;102327.00;;;28.00
44429;BMP180;30134;47.866;-4.222;2022-07-21T05:04:10;102331.00;;;28.10
44429;BMP180;30134;47.866;-4.222;2022-07-21T05:06:36;102331.00;;;28.10
44429;BMP180;30134;47.866;-4.222;2022-07-21T05:09:02;102332.00;;;27.90
44429;BMP180;30134;47.866;-4.222;2022-07-21T05:11:28;102332.00;;;27.90
44429;BMP180;30134;47.866;-4.222;2022-07-21T05:13:55;102332.00;;;27.80
44429;BMP180;30134;47.866;-4.222;2022-07-21T05:16:21;102332.00;;;28.00
44429;BMP180;30134;47.866;-4.222;2022-07-21T05:18:47;102332.00;;;27.80
44429;BMP180;30134;47.866;-4.222;2022-07-21T05:21:13;102336.00;;;28.10
44429;BMP180;30134;47.866;-4.222;2022-07-21T05:23:39;102332.00;;;28.00
44429;BMP180;30134;47.866;-4.222;2022-07-21T05:26:05;102334.00;;;27.90
44429;BMP180;30134;47.866;-4.222;2022-07-21T05:28:32;102337.00;;;28.00
44429;BMP180;30134;47.866;-4.222;2022-07-21T05:30:58;102349.00;;;28.00
44429;BMP180;30134;47.866;-4.222;2022-07-21T05:33:24;102350.00;;;28.00
44429;BMP180;30134;47.866;-4.222;2022-07-21T05:35:50;102347.00;;;28.10
44429;BMP180;30134;47.866;-4.222;2022-07-21T05:38:16;102347.00;;;27.70
44429;BMP180;30134;47.866;-4.222;2022-07-21T05:40:42;102348.00;;;28.10
44429;BMP180;30134;47.866;-4.222;2022-07-21T05:43:08;102349.00;;;27.90
44429;BMP180;30134;47.866;-4.222;2022-07-21T05:45:35;102355.00;;;27.90
44429;BMP180;30134;47.866;-4.222;2022-07-21T05:48:01;102355.00;;;27.80
44429;BMP180;30134;47.866;-4.222;2022-07-21T05:50:27;102353.00;;;28.00
44429;BMP180;30134;47.866;-4.222;2022-07-21T05:52:53;102352.00;;;27.90
44429;BMP180;30134;47.866;-4.222;2022-07-21T05:55:19;102358.00;;;28.10
44429;BMP180;30134;47.866;-4.222;2022-07-21T05:57:45;102358.00;;;27.70
44429;BMP180;30134;47.866;-4.222;2022-07-21T06:00:11;102358.00;;;27.90
44429;BMP180;30134;47.866;-4.222;2022-07-21T06:02:38;102358.00;;;27.90
44429;BMP180;30134;47.866;-4.222;2022-07-21T06:05:04;102357.00;;;27.90
44429;BMP180;30134;47.866;-4.222;2022-07-21T06:07:32;102353.00;;;27.80
44429;BMP180;30134;47.866;-4.222;2022-07-21T06:09:58;102355.00;;;27.80
44429;BMP180;30134;47.866;-4.222;2022-07-21T06:12:27;102354.00;;;27.60
44429;BMP180;30134;47.866;-4.222;2022-07-21T06:14:52;102354.00;;;27.60
44429;BMP180;30134;47.866;-4.222;2022-07-21T06:17:22;102360.00;;;27.60
44429;BMP180;30134;47.866;-4.222;2022-07-21T06:19:48;102359.00;;;27.80
44429;BMP180;30134;47.866;-4.222;2022-07-21T06:22:13;102360.00;;;27.90
44429;BMP180;30134;47.866;-4.222;2022-07-21T06:24:39;102352.00;;;27.80
44429;BMP180;30134;47.866;-4.222;2022-07-21T06:27:05;102353.00;;;27.70
44429;BMP180;30134;47.866;-4.222;2022-07-21T06:29:31;102351.00;;;27.70
44429;BMP180;30134;47.866;-4.222;2022-07-21T06:31:57;102349.00;;;27.80
44429;BMP180;30134;47.866;-4.222;2022-07-21T06:34:23;102351.00;;;27.70
44429;BMP180;30134;47.866;-4.222;2022-07-21T06:36:50;102348.00;;;27.70
44429;BMP180;30134;47.866;-4.222;2022-07-21T06:39:16;102346.00;;;27.70
44429;BMP180;30134;47.866;-4.222;2022-07-21T06:41:41;102355.00;;;27.80
44429;BMP180;30134;47.866;-4.222;2022-07-21T06:44:07;102356.00;;;27.80
44429;BMP180;30134;47.866;-4.222;2022-07-21T06:46:34;102354.00;;;27.70
44429;BMP180;30134;47.866;-4.222;2022-07-21T06:49:02;102358.00;;;27.70
44429;BMP180;30134;47.866;-4.222;2022-07-21T06:51:28;102364.00;;;27.60
44429;BMP180;30134;47.866;-4.222;2022-07-21T06:53:55;102365.00;;;27.80
44429;BMP180;30134;47.866;-4.222;2022-07-21T06:56:21;102368.00;;;27.80
44429;BMP180;30134;47.866;-4.222;2022-07-21T06:58:47;102367.00;;;27.70
44429;BMP180;30134;47.866;-4.222;2022-07-21T07:01:13;102364.00;;;27.80
44429;BMP180;30134;47.866;-4.222;2022-07-21T07:03:43;102362.00;;;27.60
44429;BMP180;30134;47.866;-4.222;2022-07-21T07:06:09;102366.00;;;27.70
44429;BMP180;30134;47.866;-4.222;2022-07-21T07:08:37;102361.00;;;27.70
44429;BMP180;30134;47.866;-4.222;2022-07-21T07:11:04;102362.00;;;27.70
44429;BMP180;30134;47.866;-4.222;2022-07-21T07:13:31;102368.00;;;27.70
44429;BMP180;30134;47.866;-4.222;2022-07-21T07:15:57;102367.00;;;27.60
44429;BMP180;30134;47.866;-4.222;2022-07-21T07:18:23;102362.00;;;27.60
44429;BMP180;30134;47.866;-4.222;2022-07-21T07:20:50;102374.00;;;27.70
44429;BMP180;30134;47.866;-4.222;2022-07-21T07:23:17;102373.00;;;27.50
44429;BMP180;30134;47.866;-4.222;2022-07-21T07:25:43;102375.00;;;27.60
44429;BMP180;30134;47.866;-4.222;2022-07-21T07:28:09;102375.00;;;27.70
44429;BMP180;30134;47.866;-4.222;2022-07-21T07:30:36;102373.00;;;27.70
44429;BMP180;30134;47.866;-4.222;2022-07-21T07:33:02;102373.00;;;27.70
44429;BMP180;30134;47.866;-4.222;2022-07-21T07:35:28;102372.00;;;27.70
44429;BMP180;30134;47.866;-4.222;2022-07-21T07:37:54;102370.00;;;27.70
44429;BMP180;30134;47.866;-4.222;2022-07-21T07:40:22;102376.00;;;27.60
44429;BMP180;30134;47.866;-4.222;2022-07-21T07:42:49;102368.00;;;27.90
44429;BMP180;30134;47.866;-4.222;2022-07-21T07:45:22;102372.00;;;27.70
44429;BMP180;30134;47.866;-4.222;2022-07-21T07:47:49;102371.00;;;27.90
44429;BMP180;30134;47.866;-4.222;2022-07-21T07:50:15;102367.00;;;28.00
44429;BMP180;30134;47.866;-4.222;2022-07-21T07:52:43;102372.00;;;28.00
44429;BMP180;30134;47.866;-4.222;2022-07-21T07:55:10;102372.00;;;28.30
44429;BMP180;30134;47.866;-4.222;2022-07-21T07:57:44;102363.00;;;28.00
44429;BMP180;30134;47.866;-4.222;2022-07-21T08:00:16;102363.00;;;28.40
44429;BMP180;30134;47.866;-4.222;2022-07-21T08:02:43;102364.00;;;28.30
44429;BMP180;30134;47.866;-4.222;2022-07-21T08:05:11;102361.00;;;28.30
44429;BMP180;30134;47.866;-4.222;2022-07-21T08:07:39;102363.00;;;28.30
44429;BMP180;30134;47.866;-4.222;2022-07-21T08:10:12;102360.00;;;28.40
44429;BMP180;30134;47.866;-4.222;2022-07-21T08:12:39;102363.00;;;28.20
44429;BMP180;30134;47.866;-4.222;2022-07-21T08:15:08;102365.00;;;28.40
44429;BMP180;30134;47.866;-4.222;2022-07-21T08:17:35;102364.00;;;28.40
44429;BMP180;30134;47.866;-4.222;2022-07-21T08:20:01;102367.00;;;28.50
44429;BMP180;30134;47.866;-4.222;2022-07-21T08:22:28;102370.00;;;28.60
44429;BMP180;30134;47.866;-4.222;2022-07-21T08:24:54;102362.00;;;28.60
44429;BMP180;30134;47.866;-4.222;2022-07-21T08:27:20;102363.00;;;28.60
44429;BMP180;30134;47.866;-4.222;2022-07-21T08:29:47;102360.00;;;28.40
44429;BMP180;30134;47.866;-4.222;2022-07-21T08:32:13;102353.00;;;28.50
44429;BMP180;30134;47.866;-4.222;2022-07-21T08:34:39;102357.00;;;28.60
44429;BMP180;30134;47.866;-4.222;2022-07-21T08:37:05;102355.00;;;28.60
44429;BMP180;30134;47.866;-4.222;2022-07-21T08:39:32;102354.00;;;28.60
44429;BMP180;30134;47.866;-4.222;2022-07-21T08:42:00;102346.00;;;28.60
44429;BMP180;30134;47.866;-4.222;2022-07-21T08:44:27;102340.00;;;28.50
44429;BMP180;30134;47.866;-4.222;2022-07-21T08:46:53;102340.00;;;28.60
44429;BMP180;30134;47.866;-4.222;2022-07-21T08:49:21;102344.00;;;28.60
44429;BMP180;30134;47.866;-4.222;2022-07-21T08:51:51;102346.00;;;28.70
44429;BMP180;30134;47.866;-4.222;2022-07-21T08:54:21;102345.00;;;28.60
44429;BMP180;30134;47.866;-4.222;2022-07-21T08:56:48;102341.00;;;28.60
44429;BMP180;30134;47.866;-4.222;2022-07-21T08:59:21;102348.00;;;28.50
44429;BMP180;30134;47.866;-4.222;2022-07-21T09:01:48;102348.00;;;28.60
44429;BMP180;30134;47.866;-4.222;2022-07-21T09:04:28;102353.00;;;28.60
44429;BMP180;30134;47.866;-4.222;2022-07-21T09:07:04;102349.00;;;28.60
44429;BMP180;30134;47.866;-4.222;2022-07-21T09:09:33;102345.00;;;28.70
44429;BMP180;30134;47.866;-4.222;2022-07-21T09:12:02;102349.00;;;28.70
44429;BMP180;30134;47.866;-4.222;2022-07-21T09:14:33;102339.00;;;28.80
44429;BMP180;30134;47.866;-4.222;2022-07-21T09:17:03;102346.00;;;28.70
44429;BMP180;30134;47.866;-4.222;2022-07-21T09:19:37;102347.00;;;28.70
44429;BMP180;30134;47.866;-4.222;2022-07-21T09:22:15;102341.00;;;28.60
44429;BMP180;30134;47.866;-4.222;2022-07-21T09:24:51;102343.00;;;28.80
44429;BMP180;30134;47.866;-4.222;2022-07-21T09:27:26;102337.00;;;28.90
44429;BMP180;30134;47.866;-4.222;2022-07-21T09:30:00;102342.00;;;28.70
44429;BMP180;30134;47.866;-4.222;2022-07-21T09:32:36;102339.00;;;28.70
44429;BMP180;30134;47.866;-4.222;2022-07-21T09:35:08;102346.00;;;28.80
44429;BMP180;30134;47.866;-4.222;2022-07-21T09:37:43;102344.00;;;28.80
44429;BMP180;30134;47.866;-4.222;2022-07-21T09:40:13;102337.00;;;28.60
44429;BMP180;30134;47.866;-4.222;2022-07-21T09:42:43;102340.00;;;28.60
44429;BMP180;30134;47.866;-4.222;2022-07-21T09:45:15;102342.00;;;28.80
44429;BMP180;30134;47.866;-4.222;2022-07-21T09:47:45;102342.00;;;28.70
44429;BMP180;30134;47.866;-4.222;2022-07-21T09:50:15;102336.00;;;28.90
44429;BMP180;30134;47.866;-4.222;2022-07-21T09:52:44;102333.00;;;28.80
44429;BMP180;30134;47.866;-4.222;2022-07-21T09:55:13;102328.00;;;28.90
44429;BMP180;30134;47.866;-4.222;2022-07-21T09:57:40;102329.00;;;28.90
44429;BMP180;30134;47.866;-4.222;2022-07-21T10:00:18;102340.00;;;28.80
44429;BMP180;30134;47.866;-4.222;2022-07-21T10:02:47;102341.00;;;28.80
44429;BMP180;30134;47.866;-4.222;2022-07-21T10:05:19;102341.00;;;28.60
44429;BMP180;30134;47.866;-4.222;2022-07-21T10:07:47;102339.00;;;28.90
44429;BMP180;30134;47.866;-4.222;2022-07-21T10:10:14;102338.00;;;28.90
44429;BMP180;30134;47.866;-4.222;2022-07-21T10:12:41;102345.00;;;28.90
44429;BMP180;30134;47.866;-4.222;2022-07-21T10:15:08;102351.00;;;29.00
44429;BMP180;30134;47.866;-4.222;2022-07-21T10:17:34;102354.00;;;28.80
44429;BMP180;30134;47.866;-4.222;2022-07-21T10:20:25;102352.00;;;28.80
44429;BMP180;30134;47.866;-4.222;2022-07-21T10:23:11;102347.00;;;28.60
44429;BMP180;30134;47.866;-4.222;2022-07-21T10:25:38;102342.00;;;28.80
44429;BMP180;30134;47.866;-4.222;2022-07-21T10:30:39;102345.00;;;28.80
44429;BMP180;30134;47.866;-4.222;2022-07-21T10:33:07;102345.00;;;28.60
44429;BMP180;30134;47.866;-4.222;2022-07-21T10:35:35;102346.00;;;28.90
44429;BMP180;30134;47.866;-4.222;2022-07-21T10:38:05;102339.00;;;28.60
44429;BMP180;30134;47.866;-4.222;2022-07-21T10:45:40;102336.00;;;29.10
44429;BMP180;30134;47.866;-4.222;2022-07-21T10:48:55;102336.00;;;28.80
44429;BMP180;30134;47.866;-4.222;2022-07-21T10:50:59;102341.00;;;28.80
44429;BMP180;30134;47.866;-4.222;2022-07-21T10:53:26;102342.00;;;28.80
44429;BMP180;30134;47.866;-4.222;2022-07-21T10:55:55;102338.00;;;28.90
44429;BMP180;30134;47.866;-4.222;2022-07-21T10:58:39;102335.00;;;28.90
44429;BMP180;30134;47.866;-4.222;2022-07-21T11:03:44;102339.00;;;28.80
44429;BMP180;30134;47.866;-4.222;2022-07-21T11:06:26;102338.00;;;28.80
44429;BMP180;30134;47.866;-4.222;2022-07-21T11:14:18;102336.00;;;29.00
44429;BMP180;30134;47.866;-4.222;2022-07-21T11:19:48;102340.00;;;29.10
44429;BMP180;30134;47.866;-4.222;2022-07-21T11:22:27;102334.00;;;28.80
44429;BMP180;30134;47.866;-4.222;2022-07-21T11:24:59;102336.00;;;28.70
44429;BMP180;30134;47.866;-4.222;2022-07-21T11:27:29;102341.00;;;28.80
44429;BMP180;30134;47.866;-4.222;2022-07-21T11:29:59;102344.00;;;28.90
44429;BMP180;30134;47.866;-4.222;2022-07-21T11:32:26;102333.00;;;29.20
44429;BMP180;30134;47.866;-4.222;2022-07-21T11:35:03;102334.00;;;29.00
44429;BMP180;30134;47.866;-4.222;2022-07-21T11:37:37;102326.00;;;28.80
44429;BMP180;30134;47.866;-4.222;2022-07-21T11:40:16;102332.00;;;29.00
44429;BMP180;30134;47.866;-4.222;2022-07-21T11:42:45;102330.00;;;29.20
44429;BMP180;30134;47.866;-4.222;2022-07-21T11:45:14;102330.00;;;29.20
44429;BMP180;30134;47.866;-4.222;2022-07-21T11:47:41;102321.00;;;29.10
44429;BMP180;30134;47.866;-4.222;2022-07-21T11:50:11;102328.00;;;29.10
44429;BMP180;30134;47.866;-4.222;2022-07-21T11:52:39;102321.00;;;28.80
44429;BMP180;30134;47.866;-4.222;2022-07-21T11:55:09;102319.00;;;29.10
44429;BMP180;30134;47.866;-4.222;2022-07-21T11:57:35;102318.00;;;29.20
44429;BMP180;30134;47.866;-4.222;2022-07-21T12:00:03;102309.00;;;28.90
44429;BMP180;30134;47.866;-4.222;2022-07-21T12:02:39;102304.00;;;28.90
44429;BMP180;30134;47.866;-4.222;2022-07-21T12:05:07;102301.00;;;29.10
44429;BMP180;30134;47.866;-4.222;2022-07-21T12:07:46;102302.00;;;29.00
44429;BMP180;30134;47.866;-4.222;2022-07-21T12:10:24;102292.00;;;29.10
44429;BMP180;30134;47.866;-4.222;2022-07-21T12:12:56;102303.00;;;29.20
44429;BMP180;30134;47.866;-4.222;2022-07-21T12:15:28;102301.00;;;29.20
44429;BMP180;30134;47.866;-4.222;2022-07-21T12:18:05;102287.00;;;29.00
44429;BMP180;30134;47.866;-4.222;2022-07-21T12:20:41;102296.00;;;29.20
44429;BMP180;30134;47.866;-4.222;2022-07-21T12:23:29;102303.00;;;29.20
44429;BMP180;30134;47.866;-4.222;2022-07-21T12:26:00;102299.00;;;29.20
44429;BMP180;30134;47.866;-4.222;2022-07-21T12:29:04;102286.00;;;29.20
44429;BMP180;30134;47.866;-4.222;2022-07-21T12:31:35;102288.00;;;29.20
44429;BMP180;30134;47.866;-4.222;2022-07-21T12:34:14;102291.00;;;29.30
44429;BMP180;30134;47.866;-4.222;2022-07-21T12:36:46;102288.00;;;29.20
44429;BMP180;30134;47.866;-4.222;2022-07-21T12:39:32;102285.00;;;29.20
44429;BMP180;30134;47.866;-4.222;2022-07-21T12:42:34;102278.00;;;29.20
44429;BMP180;30134;47.866;-4.222;2022-07-21T12:45:20;102277.00;;;29.30
44429;BMP180;30134;47.866;-4.222;2022-07-21T12:48:09;102269.00;;;29.20
44429;BMP180;30134;47.866;-4.222;2022-07-21T13:29:57;102229.00;;;29.50
44429;BMP180;30134;47.866;-4.222;2022-07-21T13:32:29;102228.00;;;29.60
44429;BMP180;30134;47.866;-4.222;2022-07-21T13:34:55;102224.00;;;29.50
44429;BMP180;30134;47.866;-4.222;2022-07-21T13:37:23;102217.00;;;29.50
44429;BMP180;30134;47.866;-4.222;2022-07-21T13:39:49;102216.00;;;29.60
44429;BMP180;30134;47.866;-4.222;2022-07-21T13:42:18;102212.00;;;29.50
44429;BMP180;30134;47.866;-4.222;2022-07-21T13:44:44;102218.00;;;29.50
44429;BMP180;30134;47.866;-4.222;2022-07-21T13:47:10;102209.00;;;29.30
44429;BMP180;30134;47.866;-4.222;2022-07-21T13:49:36;102213.00;;;29.60
44429;BMP180;30134;47.866;-4.222;2022-07-21T13:52:02;102209.00;;;29.50
44429;BMP180;30134;47.866;-4.222;2022-07-21T13:54:28;102200.00;;;29.60
44429;BMP180;30134;47.866;-4.222;2022-07-21T13:56:54;102207.00;;;29.50
44429;BMP180;30134;47.866;-4.222;2022-07-21T13:59:22;102207.00;;;29.70
44429;BMP180;30134;47.866;-4.222;2022-07-21T14:01:48;102201.00;;;29.60
44429;BMP180;30134;47.866;-4.222;2022-07-21T14:04:14;102198.00;;;29.60
44429;BMP180;30134;47.866;-4.222;2022-07-21T14:06:40;102204.00;;;29.70
44429;BMP180;30134;47.866;-4.222;2022-07-21T14:09:06;102195.00;;;29.40
44429;BMP180;30134;47.866;-4.222;2022-07-21T14:11:33;102187.00;;;29.70
44429;BMP180;30134;47.866;-4.222;2022-07-21T14:14:01;102193.00;;;29.60
44429;BMP180;30134;47.866;-4.222;2022-07-21T14:16:28;102193.00;;;29.70
44429;BMP180;30134;47.866;-4.222;2022-07-21T14:18:54;102195.00;;;29.60
44429;BMP180;30134;47.866;-4.222;2022-07-21T14:21:20;102195.00;;;29.70
44429;BMP180;30134;47.866;-4.222;2022-07-21T14:23:46;102190.00;;;29.70
44429;BMP180;30134;47.866;-4.222;2022-07-21T14:26:12;102178.00;;;29.60
44429;BMP180;30134;47.866;-4.222;2022-07-21T14:28:38;102180.00;;;30.00
44429;BMP180;30134;47.866;-4.222;2022-07-21T14:31:04;102176.00;;;29.90
44429;BMP180;30134;47.866;-4.222;2022-07-21T14:33:37;102181.00;;;29.70
44429;BMP180;30134;47.866;-4.222;2022-07-21T14:36:03;102179.00;;;30.00
44429;BMP180;30134;47.866;-4.222;2022-07-21T14:38:29;102175.00;;;29.80
44429;BMP180;30134;47.866;-4.222;2022-07-21T14:40:55;102171.00;;;30.10
44429;BMP180;30134;47.866;-4.222;2022-07-21T14:43:22;102165.00;;;29.90
44429;BMP180;30134;47.866;-4.222;2022-07-21T14:45:49;102156.00;;;29.90
44429;BMP180;30134;47.866;-4.222;2022-07-21T14:48:15;102161.00;;;29.90
44429;BMP180;30134;47.866;-4.222;2022-07-21T14:50:41;102155.00;;;30.00
44429;BMP180;30134;47.866;-4.222;2022-07-21T14:53:07;102149.00;;;29.90
44429;BMP180;30134;47.866;-4.222;2022-07-21T14:55:34;102151.00;;;30.10